Time;durP1;ratioP1;P1;durP2;ratioP2;P2;SDS_P1;SDS_P2;PMS_P1;PMS_P2;Temp;Humidity;BMP_temperature;BMP_pressure;BME280_temperature;BME280_humidity;BME280_pressure;Samples;Min_cycle;Max_cycle;Signal;HPM_P1;HPM_P2
2022/09/27 00:00:32;;;;;;;16.30;3.25;;;;;;;;;;5048638;28;20091;-73
2022/09/27 00:02:58;;;;;;;14.77;4.35;;;;;;;;;;5049163;28;20096;-73
2022/09/27 00:05:24;;;;;;;10.45;3.00;;;;;;;;;;5049281;28;20024;-73
2022/09/27 00:07:50;;;;;;;10.73;2.80;;;;;;;;;;5056398;28;20082;-73
2022/09/27 00:10:16;;;;;;;15.20;3.58;;;;;;;;;;5067980;28;20437;-73
2022/09/27 00:12:43;;;;;;;15.40;3.58;;;;;;;;;;5069124;28;20028;-73
2022/09/27 00:15:10;;;;;;;13.07;3.30;;;;;;;;;;5064284;28;20032;-72
2022/09/27 00:17:37;;;;;;;11.32;3.72;;;;;;;;;;5048854;28;20025;-73
2022/09/27 00:20:05;;;;;;;12.40;3.30;;;;;;;;;;5049001;28;20025;-73
2022/09/27 00:22:31;;;;;;;10.18;2.83;;;;;;;;;;5048588;28;20115;-73
2022/09/27 00:24:57;;;;;;;7.75;2.40;;;;;;;;;;5048636;28;20120;-72
2022/09/27 00:27:24;;;;;;;13.18;3.95;;;;;;;;;;5048483;28;20048;-72
2022/09/27 00:29:51;;;;;;;8.60;3.10;;;;;;;;;;5048596;28;20434;-74
2022/09/27 00:32:17;;;;;;;9.43;2.83;;;;;;;;;;5048865;28;20029;-72
2022/09/27 00:34:43;;;;;;;9.10;2.60;;;;;;;;;;5058145;28;20024;-73
2022/09/27 00:37:10;;;;;;;10.93;2.75;;;;;;;;;;5068419;28;20029;-73
2022/09/27 00:39:38;;;;;;;10.77;3.38;;;;;;;;;;5068685;28;20024;-72
2022/09/27 00:42:05;;;;;;;7.97;2.53;;;;;;;;;;5068052;28;20028;-73
2022/09/27 00:44:37;;;;;;;9.35;2.33;;;;;;;;;;5068030;28;20039;-73
2022/09/27 00:47:03;;;;;;;11.65;2.03;;;;;;;;;;5068034;28;20112;-73
2022/09/27 00:49:32;;;;;;;11.90;2.50;;;;;;;;;;5068302;28;20802;-73
2022/09/27 00:52:07;;;;;;;11.90;2.45;;;;;;;;;;5068365;28;20506;-73
2022/09/27 00:54:33;;;;;;;11.38;2.22;;;;;;;;;;5068359;28;20044;-74
2022/09/27 00:57:00;;;;;;;7.03;1.90;;;;;;;;;;5067919;28;20818;-73
2022/09/27 00:59:28;;;;;;;11.48;3.00;;;;;;;;;;5068391;28;20039;-72
2022/09/27 01:01:54;;;;;;;13.65;2.85;;;;;;;;;;5068205;28;20031;-73
2022/09/27 01:04:28;;;;;;;7.00;1.85;;;;;;;;;;5068375;28;20029;-73
2022/09/27 01:06:54;;;;;;;8.60;1.58;;;;;;;;;;5068214;28;20535;-72
2022/09/27 01:09:21;;;;;;;6.78;1.70;;;;;;;;;;5067789;28;20086;-73
2022/09/27 01:12:05;;;;;;;9.25;2.92;;;;;;;;;;5068214;28;20056;-72
2022/09/27 01:14:43;;;;;;;5.97;2.33;;;;;;;;;;5048795;28;20033;-73
2022/09/27 01:17:15;;;;;;;8.18;2.00;;;;;;;;;;5047768;28;20025;-73
2022/09/27 01:20:02;;;;;;;6.38;1.48;;;;;;;;;;5067764;28;20036;-72
2022/09/27 01:22:41;;;;;;;6.95;1.50;;;;;;;;;;5067712;28;20090;-73
2022/09/27 01:25:15;;;;;;;8.45;1.40;;;;;;;;;;5066237;28;20467;-72
2022/09/27 01:27:50;;;;;;;12.50;1.73;;;;;;;;;;5054953;28;20407;-71
2022/09/27 01:30:20;;;;;;;10.55;2.10;;;;;;;;;;5047631;28;20031;-72
2022/09/27 01:32:46;;;;;;;;;;;;;;;;;;5047084;28;20041;-73
2022/09/27 01:35:27;;;;;;;10.68;1.65;;;;;;;;;;5060939;28;19927;-73
2022/09/27 01:38:08;;;;;;;7.80;1.92;;;;;;;;;;5067492;28;20031;-74
2022/09/27 01:40:49;;;;;;;8.77;2.28;;;;;;;;;;5066977;28;20035;-74
2022/09/27 01:43:45;;;;;;;6.45;1.33;;;;;;;;;;5067733;28;20028;-71
2022/09/27 01:46:14;;;;;;;3.90;1.20;;;;;;;;;;5066448;28;20047;-73
2022/09/27 01:48:45;;;;;;;9.63;1.93;;;;;;;;;;5067691;28;20031;-73
2022/09/27 01:51:17;;;;;;;8.77;1.42;;;;;;;;;;5067285;28;20293;-73
2022/09/27 01:53:45;;;;;;;7.38;1.70;;;;;;;;;;5067295;28;20562;-74
2022/09/27 01:56:16;;;;;;;6.10;1.40;;;;;;;;;;5067245;28;20483;-73
2022/09/27 01:59:05;;;;;;;7.72;2.00;;;;;;;;;;5067642;28;20482;-73
2022/09/27 02:01:32;;;;;;;5.53;1.50;;;;;;;;;;5066768;28;20086;-73
2022/09/27 02:04:00;;;;;;;7.18;1.25;;;;;;;;;;5047689;28;20620;-73
2022/09/27 02:06:37;;;;;;;7.63;1.50;;;;;;;;;;5047770;28;20022;-73
2022/09/27 02:09:07;;;;;;;7.47;1.77;;;;;;;;;;5048808;28;20032;-73
2022/09/27 02:11:35;;;;;;;4.85;1.50;;;;;;;;;;5048927;28;20390;-73
2022/09/27 02:14:04;;;;;;;6.38;2.25;;;;;;;;;;5049049;28;20166;-73
2022/09/27 02:16:39;;;;;;;5.40;1.08;;;;;;;;;;5047800;28;20052;-73
2022/09/27 02:19:08;;;;;;;5.55;1.10;;;;;;;;;;5047552;28;20091;-74
2022/09/27 02:21:40;;;;;;;6.07;1.40;;;;;;;;;;5047539;28;20058;-73
2022/09/27 02:24:09;;;;;;;6.22;1.20;;;;;;;;;;5046940;28;20399;-72
2022/09/27 02:26:44;;;;;;;9.40;1.38;;;;;;;;;;5047606;28;20032;-73
2022/09/27 02:29:15;;;;;;;10.75;1.40;;;;;;;;;;5047330;28;20068;-73
2022/09/27 02:31:41;;;;;;;6.22;1.27;;;;;;;;;;5046798;28;20090;-73
2022/09/27 02:34:07;;;;;;;4.95;1.10;;;;;;;;;;5053483;28;20665;-73
2022/09/27 02:36:33;;;;;;;5.65;1.10;;;;;;;;;;5070804;28;20025;-72
2022/09/27 02:39:00;;;;;;;4.75;1.00;;;;;;;;;;5070428;28;20066;-72
2022/09/27 02:41:26;;;;;;;3.70;1.38;;;;;;;;;;5070959;28;20039;-73
2022/09/27 02:43:54;;;;;;;4.85;1.35;;;;;;;;;;5070591;28;20029;-72
2022/09/27 02:46:20;;;;;;;8.23;1.73;;;;;;;;;;5070088;28;20067;-72
2022/09/27 02:49:10;;;;;;;15.15;1.60;;;;;;;;;;5070578;28;20029;-72
2022/09/27 02:52:00;;;;;;;10.23;1.80;;;;;;;;;;5050432;28;20446;-73
2022/09/27 02:54:32;;;;;;;5.38;1.63;;;;;;;;;;5050819;28;20041;-73
2022/09/27 02:57:04;;;;;;;7.10;1.83;;;;;;;;;;5050058;28;20017;-74
2022/09/27 02:59:30;;;;;;;8.20;1.60;;;;;;;;;;5052899;28;20025;-73
2022/09/27 03:02:10;;;;;;;10.35;1.52;;;;;;;;;;5070484;28;20035;-73
2022/09/27 03:04:43;;;;;;;7.95;2.17;;;;;;;;;;5070299;28;20029;-72
2022/09/27 03:07:09;;;;;;;4.70;2.22;;;;;;;;;;5070251;28;20082;-73
2022/09/27 03:09:43;;;;;;;11.75;2.83;;;;;;;;;;5069112;28;20406;-74
2022/09/27 03:12:09;;;;;;;7.90;1.77;;;;;;;;;;5070182;28;20143;-72
2022/09/27 03:14:35;;;;;;;9.23;1.70;;;;;;;;;;5070052;28;20029;-72
2022/09/27 03:17:01;;;;;;;8.73;1.98;;;;;;;;;;5069813;28;20037;-73
2022/09/27 03:19:27;;;;;;;8.40;2.20;;;;;;;;;;5070262;28;20104;-74
2022/09/27 03:21:53;;;;;;;7.80;1.63;;;;;;;;;;5069569;28;20128;-74
2022/09/27 03:24:19;;;;;;;5.00;1.20;;;;;;;;;;5070198;28;20131;-72
2022/09/27 03:26:46;;;;;;;8.13;1.70;;;;;;;;;;5069421;28;20341;-73
2022/09/27 03:29:12;;;;;;;7.63;1.95;;;;;;;;;;5049427;28;20044;-74
2022/09/27 03:31:38;;;;;;;9.55;2.10;;;;;;;;;;5049836;28;20553;-73
2022/09/27 03:34:04;;;;;;;7.20;1.55;;;;;;;;;;5054007;28;20085;-73
2022/09/27 03:36:30;;;;;;;8.05;1.67;;;;;;;;;;5069778;28;20119;-74
2022/09/27 03:38:57;;;;;;;8.90;2.00;;;;;;;;;;5069672;28;20116;-73
2022/09/27 03:41:23;;;;;;;8.68;1.70;;;;;;;;;;5067904;28;20438;-73
2022/09/27 03:43:49;;;;;;;8.85;1.80;;;;;;;;;;5049971;28;20044;-74
2022/09/27 03:46:15;;;;;;;10.70;1.90;;;;;;;;;;5048182;28;20059;-73
2022/09/27 03:48:41;;;;;;;11.57;1.65;;;;;;;;;;5049347;28;20025;-73
2022/09/27 03:51:11;;;;;;;6.70;1.77;;;;;;;;;;5049369;28;20044;-72
2022/09/27 03:53:37;;;;;;;7.32;1.80;;;;;;;;;;5049433;28;20033;-72
2022/09/27 03:56:03;;;;;;;10.27;2.60;;;;;;;;;;5047692;28;20024;-74
2022/09/27 03:58:30;;;;;;;11.73;2.63;;;;;;;;;;5049285;28;20021;-74
2022/09/27 04:00:56;;;;;;;13.55;3.45;;;;;;;;;;5049837;28;20121;-72
2022/09/27 04:03:22;;;;;;;12.85;3.55;;;;;;;;;;5049749;28;20060;-73
2022/09/27 04:05:48;;;;;;;9.85;2.22;;;;;;;;;;5049830;28;20074;-72
2022/09/27 04:08:15;;;;;;;11.10;2.47;;;;;;;;;;5047906;28;20056;-72
2022/09/27 04:10:42;;;;;;;12.38;3.38;;;;;;;;;;5047757;28;20107;-72
2022/09/27 04:13:08;;;;;;;12.20;2.85;;;;;;;;;;5047544;28;20526;-72
2022/09/27 04:15:34;;;;;;;14.75;3.45;;;;;;;;;;5048765;28;20025;-72
2022/09/27 04:18:01;;;;;;;10.32;2.67;;;;;;;;;;5048763;28;20927;-74
2022/09/27 04:20:27;;;;;;;14.05;2.20;;;;;;;;;;5048877;28;20029;-74
2022/09/27 04:22:53;;;;;;;10.00;2.00;;;;;;;;;;5048502;28;20041;-72
2022/09/27 04:25:19;;;;;;;11.18;2.40;;;;;;;;;;5048999;28;20035;-72
2022/09/27 04:27:46;;;;;;;8.70;2.03;;;;;;;;;;5048904;28;20115;-73
2022/09/27 04:30:12;;;;;;;10.98;2.33;;;;;;;;;;5048478;28;20033;-72
2022/09/27 04:32:42;;;;;;;6.70;2.00;;;;;;;;;;5048275;28;20037;-72
2022/09/27 04:37:53;;;;;;;11.18;2.03;;;;;;;;;;5069019;28;20161;-73
2022/09/27 04:40:21;;;;;;;12.77;3.28;;;;;;;;;;5068449;28;20099;-73
2022/09/27 04:42:47;;;;;;;13.90;3.58;;;;;;;;;;5067576;28;20475;-72
2022/09/27 04:45:14;;;;;;;14.95;2.50;;;;;;;;;;5068089;28;20036;-73
2022/09/27 04:47:46;;;;;;;11.80;2.38;;;;;;;;;;5068538;28;20889;-72
2022/09/27 04:50:13;;;;;;;13.25;2.20;;;;;;;;;;5067483;28;20063;-73
2022/09/27 04:52:39;;;;;;;9.30;2.70;;;;;;;;;;5068045;28;20055;-73
2022/09/27 04:55:05;;;;;;;10.90;2.63;;;;;;;;;;5068221;28;20387;-71
2022/09/27 04:57:32;;;;;;;8.32;2.00;;;;;;;;;;5067745;28;20028;-72
2022/09/27 04:59:59;;;;;;;11.05;2.97;;;;;;;;;;5068240;28;20056;-72
2022/09/27 05:02:26;;;;;;;14.13;3.35;;;;;;;;;;5068189;28;20169;-72
2022/09/27 05:04:52;;;;;;;14.38;2.85;;;;;;;;;;5068157;28;20183;-72
2022/09/27 05:07:19;;;;;;;17.02;3.38;;;;;;;;;;5068072;28;20032;-72
2022/09/27 05:09:45;;;;;;;12.07;2.85;;;;;;;;;;5068278;28;20035;-71
2022/09/27 05:12:12;;;;;;;19.02;4.18;;;;;;;;;;5067771;28;20029;-73
2022/09/27 05:14:38;;;;;;;12.85;2.92;;;;;;;;;;5067991;28;20024;-73
2022/09/27 05:17:06;;;;;;;11.65;2.38;;;;;;;;;;5067558;28;20168;-73
2022/09/27 05:19:33;;;;;;;15.45;2.72;;;;;;;;;;5067978;28;20028;-73
2022/09/27 05:21:59;;;;;;;7.72;2.10;;;;;;;;;;5067239;28;20052;-73
2022/09/27 05:24:27;;;;;;;11.70;2.45;;;;;;;;;;5067916;28;20028;-73
2022/09/27 05:26:53;;;;;;;12.75;3.00;;;;;;;;;;5068078;28;20027;-73
2022/09/27 05:29:19;;;;;;;9.02;2.03;;;;;;;;;;5067824;28;20040;-73
2022/09/27 05:31:46;;;;;;;7.88;1.90;;;;;;;;;;5067485;28;20036;-73
2022/09/27 05:34:12;;;;;;;14.98;2.60;;;;;;;;;;5062164;28;20039;-72
2022/09/27 05:36:38;;;;;;;10.35;1.90;;;;;;;;;;5048308;28;20017;-72
2022/09/27 05:39:05;;;;;;;9.98;2.17;;;;;;;;;;5047654;28;20021;-74
2022/09/27 05:41:33;;;;;;;6.47;1.58;;;;;;;;;;5047842;28;20052;-72
2022/09/27 05:44:02;;;;;;;11.38;2.25;;;;;;;;;;5049348;28;20033;-72
2022/09/27 05:46:29;;;;;;;10.45;2.65;;;;;;;;;;5050235;28;20029;-72
2022/09/27 05:48:55;;;;;;;10.35;2.03;;;;;;;;;;5049455;28;20033;-73
2022/09/27 05:51:21;;;;;;;8.38;2.00;;;;;;;;;;5049297;28;20029;-74
2022/09/27 05:53:47;;;;;;;8.63;2.25;;;;;;;;;;5048105;28;20033;-72
2022/09/27 05:56:13;;;;;;;10.48;1.88;;;;;;;;;;5046095;28;20076;-74
2022/09/27 05:58:40;;;;;;;11.27;1.88;;;;;;;;;;5055460;28;20483;-74
2022/09/27 06:01:07;;;;;;;13.80;2.60;;;;;;;;;;5051400;28;20054;-74
2022/09/27 06:03:33;;;;;;;15.60;2.70;;;;;;;;;;5054672;28;20021;-73
2022/09/27 06:06:06;;;;;;;9.57;2.25;;;;;;;;;;5055348;28;20059;-73
2022/09/27 06:08:33;;;;;;;9.00;2.38;;;;;;;;;;5056331;28;20025;-73
2022/09/27 06:11:11;;;;;;;11.48;2.72;;;;;;;;;;5055835;28;20033;-73
2022/09/27 06:13:38;;;;;;;8.77;2.65;;;;;;;;;;5060338;28;20529;-73
2022/09/27 06:16:05;;;;;;;6.68;2.28;;;;;;;;;;5060155;28;20020;-74
2022/09/27 06:18:31;;;;;;;13.10;2.17;;;;;;;;;;5061212;28;20017;-73
2022/09/27 06:21:00;;;;;;;9.65;2.38;;;;;;;;;;5057507;28;20020;-73
2022/09/27 06:23:26;;;;;;;8.52;2.20;;;;;;;;;;5061406;28;20049;-73
2022/09/27 06:25:53;;;;;;;7.32;1.77;;;;;;;;;;5059972;28;20039;-73
2022/09/27 06:28:20;;;;;;;14.95;3.35;;;;;;;;;;5067623;28;20040;-73
2022/09/27 06:30:47;;;;;;;9.15;2.00;;;;;;;;;;5065266;28;20108;-75
2022/09/27 06:33:14;;;;;;;9.60;2.92;;;;;;;;;;5069609;28;20035;-73
2022/09/27 06:35:44;;;;;;;4.30;1.60;;;;;;;;;;5064861;28;20033;-74
2022/09/27 06:38:14;;;;;;;7.25;2.05;;;;;;;;;;5071752;28;20027;-73
2022/09/27 06:40:40;;;;;;;11.95;3.42;;;;;;;;;;5069154;28;20029;-74
2022/09/27 06:43:08;;;;;;;7.28;2.00;;;;;;;;;;5070996;28;20106;-74
2022/09/27 06:45:34;;;;;;;7.45;1.90;;;;;;;;;;5070984;28;20104;-73
2022/09/27 06:48:01;;;;;;;5.45;1.67;;;;;;;;;;5070257;28;20042;-72
2022/09/27 06:50:27;;;;;;;4.85;1.42;;;;;;;;;;5069306;28;20449;-73
2022/09/27 06:52:53;;;;;;;6.85;1.73;;;;;;;;;;5068974;28;20064;-72
2022/09/27 06:55:19;;;;;;;6.35;1.95;;;;;;;;;;5069645;28;20483;-73
2022/09/27 07:00:30;;;;;;;6.07;1.30;;;;;;;;;;5069416;28;20089;-75
2022/09/27 07:03:00;;;;;;;9.75;1.83;;;;;;;;;;5069107;28;20036;-73
2022/09/27 07:05:27;;;;;;;5.53;1.90;;;;;;;;;;5069886;28;20017;-74
2022/09/27 07:07:56;;;;;;;6.43;2.35;;;;;;;;;;5069622;28;20074;-74
2022/09/27 07:10:22;;;;;;;6.53;1.95;;;;;;;;;;5069423;28;20032;-73
2022/09/27 07:12:48;;;;;;;8.15;2.33;;;;;;;;;;5070327;28;20029;-72
2022/09/27 07:15:15;;;;;;;9.32;2.10;;;;;;;;;;5070397;28;20525;-73
2022/09/27 07:17:41;;;;;;;8.20;2.80;;;;;;;;;;5069221;28;20056;-73
2022/09/27 07:20:07;;;;;;;10.95;5.22;;;;;;;;;;5069501;28;20530;-73
2022/09/27 07:22:39;;;;;;;8.50;3.90;;;;;;;;;;5070395;28;20044;-74
2022/09/27 07:25:05;;;;;;;9.57;2.80;;;;;;;;;;5070143;28;20020;-73
2022/09/27 07:27:32;;;;;;;9.45;2.45;;;;;;;;;;5070214;28;20094;-72
2022/09/27 07:29:58;;;;;;;8.43;2.40;;;;;;;;;;5068957;28;20032;-72
2022/09/27 07:32:24;;;;;;;7.45;2.10;;;;;;;;;;5069721;28;20047;-72
2022/09/27 07:34:50;;;;;;;8.07;2.28;;;;;;;;;;5058930;28;20043;-72
2022/09/27 07:37:16;;;;;;;7.38;1.90;;;;;;;;;;5048966;28;20113;-73
2022/09/27 07:39:42;;;;;;;10.68;1.90;;;;;;;;;;5052165;28;20028;-73
2022/09/27 07:42:08;;;;;;;5.20;1.77;;;;;;;;;;5060194;28;20029;-73
2022/09/27 07:44:35;;;;;;;8.07;2.45;;;;;;;;;;5058435;28;20056;-72
2022/09/27 07:47:01;;;;;;;4.40;1.60;;;;;;;;;;5059187;28;20127;-73
2022/09/27 07:49:27;;;;;;;7.47;2.42;;;;;;;;;;5060527;28;20035;-73
2022/09/27 07:51:53;;;;;;;6.10;1.70;;;;;;;;;;5055763;28;20021;-73
2022/09/27 07:54:19;;;;;;;8.60;2.13;;;;;;;;;;5057754;28;20043;-72
2022/09/27 07:56:46;;;;;;;6.07;2.17;;;;;;;;;;5056372;28;20028;-72
2022/09/27 07:59:12;;;;;;;5.40;1.83;;;;;;;;;;5047415;28;20675;-73
2022/09/27 08:01:39;;;;;;;7.82;1.80;;;;;;;;;;5053954;28;20020;-72
2022/09/27 08:04:06;;;;;;;5.20;1.65;;;;;;;;;;5058660;28;20120;-73
2022/09/27 08:06:32;;;;;;;8.25;1.98;;;;;;;;;;5055039;28;20021;-73
2022/09/27 08:08:58;;;;;;;7.20;1.98;;;;;;;;;;5055388;28;20039;-73
2022/09/27 08:11:26;;;;;;;6.68;1.10;;;;;;;;;;5052240;28;20095;-73
2022/09/27 08:13:51;;;;;;;4.70;1.15;;;;;;;;;;5053912;28;20060;-73
2022/09/27 08:16:18;;;;;;;5.78;1.20;;;;;;;;;;5052047;28;20460;-74
2022/09/27 08:18:44;;;;;;;5.55;1.52;;;;;;;;;;5054876;28;20043;-76
2022/09/27 08:21:10;;;;;;;6.18;1.63;;;;;;;;;;5057346;28;20036;-72
2022/09/27 08:23:36;;;;;;;5.35;1.35;;;;;;;;;;5055553;28;20032;-73
2022/09/27 08:26:03;;;;;;;5.65;1.67;;;;;;;;;;5053025;28;20581;-73
2022/09/27 08:28:30;;;;;;;6.72;1.90;;;;;;;;;;5052329;28;20242;-71
2022/09/27 08:30:59;;;;;;;4.60;1.80;;;;;;;;;;5052877;28;20028;-75
2022/09/27 08:33:25;;;;;;;6.35;1.95;;;;;;;;;;5053721;28;20124;-73
2022/09/27 08:35:51;;;;;;;3.47;1.60;;;;;;;;;;5050991;28;20102;-72
2022/09/27 08:38:18;;;;;;;13.23;2.97;;;;;;;;;;5054301;28;20032;-73
2022/09/27 08:40:48;;;;;;;8.02;2.00;;;;;;;;;;5053367;28;20058;-72
2022/09/27 08:43:20;;;;;;;6.53;2.17;;;;;;;;;;5053574;28;20391;-72
2022/09/27 08:46:00;;;;;;;5.80;1.75;;;;;;;;;;5055074;28;20058;-74
2022/09/27 08:48:27;;;;;;;4.38;1.83;;;;;;;;;;5053693;28;20025;-74
2022/09/27 08:50:53;;;;;;;5.93;2.30;;;;;;;;;;5053612;28;20029;-73
2022/09/27 08:53:30;;;;;;;6.75;2.65;;;;;;;;;;5049969;28;20047;-73
2022/09/27 08:55:57;;;;;;;7.15;2.30;;;;;;;;;;5052634;28;20094;-74
2022/09/27 08:58:23;;;;;;;5.47;1.75;;;;;;;;;;5053819;28;20025;-76
2022/09/27 09:00:54;;;;;;;7.15;2.90;;;;;;;;;;5053117;28;20117;-74
2022/09/27 09:03:22;;;;;;;5.57;2.38;;;;;;;;;;5056299;28;20035;-74
2022/09/27 09:05:54;;;;;;;6.07;2.42;;;;;;;;;;5052355;28;20036;-74
2022/09/27 09:08:30;;;;;;;5.25;2.17;;;;;;;;;;5055089;28;20024;-74
2022/09/27 09:14:21;;;;;;;3.83;1.98;;;;;;;;;;5052442;28;20077;-77
2022/09/27 09:16:53;;;;;;;5.65;2.13;;;;;;;;;;5053257;28;20473;-75
2022/09/27 09:19:19;;;;;;;5.55;1.83;;;;;;;;;;5055030;28;20092;-74
2022/09/27 09:21:57;;;;;;;4.35;1.30;;;;;;;;;;5051766;28;20057;-74
2022/09/27 09:24:23;;;;;;;4.53;1.10;;;;;;;;;;5050642;28;20399;-74
2022/09/27 09:27:08;;;;;;;3.90;1.35;;;;;;;;;;5052846;28;20105;-73
2022/09/27 09:29:34;;;;;;;2.80;1.45;;;;;;;;;;5055586;28;20584;-72
2022/09/27 09:32:00;;;;;;;4.75;1.88;;;;;;;;;;5052728;28;20033;-74
2022/09/27 09:34:32;;;;;;;5.18;2.70;;;;;;;;;;5054808;28;20033;-73
2022/09/27 09:37:03;;;;;;;8.75;3.08;;;;;;;;;;5056295;28;20110;-74
2022/09/27 09:39:39;;;;;;;8.07;3.25;;;;;;;;;;5054516;28;20032;-73
2022/09/27 09:42:26;;;;;;;7.80;2.58;;;;;;;;;;5059288;28;20585;-76
2022/09/27 09:44:59;;;;;;;8.70;3.40;;;;;;;;;;5059909;28;20029;-73
2022/09/27 09:47:43;;;;;;;5.15;2.00;;;;;;;;;;5056754;28;20028;-74
2022/09/27 09:50:16;;;;;;;9.18;2.58;;;;;;;;;;5056171;28;20048;-72
2022/09/27 09:52:45;;;;;;;6.53;2.08;;;;;;;;;;5057663;28;20025;-73
2022/09/27 09:55:24;;;;;;;8.98;2.40;;;;;;;;;;5055952;28;20487;-74
2022/09/27 09:58:01;;;;;;;5.40;1.85;;;;;;;;;;5057889;28;20048;-75
2022/09/27 10:00:27;;;;;;;2.90;1.27;;;;;;;;;;5060812;28;20025;-74
2022/09/27 10:02:58;;;;;;;6.53;1.58;;;;;;;;;;5059611;28;20029;-74
2022/09/27 10:05:25;;;;;;;8.20;2.03;;;;;;;;;;5054344;28;20025;-74
2022/09/27 10:07:52;;;;;;;3.53;1.40;;;;;;;;;;5060810;28;20056;-73
2022/09/27 10:10:20;;;;;;;4.18;1.33;;;;;;;;;;5058066;28;20033;-74
2022/09/27 10:12:46;;;;;;;3.30;0.88;;;;;;;;;;5056128;28;20044;-74
2022/09/27 10:15:20;;;;;;;5.93;1.20;;;;;;;;;;5059025;28;20029;-74
2022/09/27 10:17:52;;;;;;;6.85;1.20;;;;;;;;;;5057892;28;20025;-74
2022/09/27 10:20:28;;;;;;;5.47;1.35;;;;;;;;;;5061718;28;20017;-75
2022/09/27 10:22:57;;;;;;;7.18;1.08;;;;;;;;;;5061142;28;20060;-76
2022/09/27 10:25:23;;;;;;;5.55;1.10;;;;;;;;;;5054875;28;20029;-74
2022/09/27 10:27:51;;;;;;;7.63;1.40;;;;;;;;;;5055824;28;20059;-74
2022/09/27 10:30:31;;;;;;;3.58;1.02;;;;;;;;;;5052695;28;20025;-74
2022/09/27 10:33:05;;;;;;;7.13;1.20;;;;;;;;;;5054496;28;20048;-74
2022/09/27 10:35:31;;;;;;;3.22;1.00;;;;;;;;;;5056087;28;20028;-75
2022/09/27 10:38:12;;;;;;;6.05;1.00;;;;;;;;;;5057254;28;20028;-74
2022/09/27 10:40:38;;;;;;;4.97;1.50;;;;;;;;;;5050842;28;20040;-74
2022/09/27 10:43:23;;;;;;;5.85;1.25;;;;;;;;;;5054836;28;20397;-75
2022/09/27 10:45:49;;;;;;;6.93;0.90;;;;;;;;;;5055625;28;20036;-75
2022/09/27 10:48:22;;;;;;;3.25;1.00;;;;;;;;;;5054462;28;20116;-74
2022/09/27 10:50:58;;;;;;;6.88;1.45;;;;;;;;;;5053518;28;20111;-75
2022/09/27 10:53:24;;;;;;;8.98;1.60;;;;;;;;;;5055552;28;20105;-74
2022/09/27 10:55:53;;;;;;;11.27;1.30;;;;;;;;;;5058203;28;20518;-74
2022/09/27 10:58:30;;;;;;;5.25;0.90;;;;;;;;;;5054094;28;20056;-75
2022/09/27 11:00:56;;;;;;;5.78;1.45;;;;;;;;;;5057767;28;20032;-74
2022/09/27 11:03:24;;;;;;;3.15;1.00;;;;;;;;;;5058606;28;20055;-74
2022/09/27 11:05:53;;;;;;;4.93;0.70;;;;;;;;;;5056057;28;20449;-76
2022/09/27 11:08:23;;;;;;;3.60;1.00;;;;;;;;;;5051996;28;20546;-75
2022/09/27 11:11:18;;;;;;;5.43;1.90;;;;;;;;;;5051996;28;20048;-75
2022/09/27 11:13:56;;;;;;;3.65;0.80;;;;;;;;;;5054580;28;20036;-75
2022/09/27 11:16:30;;;;;;;4.22;1.02;;;;;;;;;;5059729;28;20034;-75
2022/09/27 11:19:08;;;;;;;4.50;0.80;;;;;;;;;;5054213;28;20021;-75
2022/09/27 11:21:56;;;;;;;8.85;1.20;;;;;;;;;;5056182;28;20041;-75
2022/09/27 11:24:42;;;;;;;2.70;0.88;;;;;;;;;;5058360;28;20368;-74
2022/09/27 11:27:10;;;;;;;5.20;1.48;;;;;;;;;;5058257;28;20033;-75
2022/09/27 11:29:37;;;;;;;4.38;0.63;;;;;;;;;;5052865;28;20108;-75
2022/09/27 11:32:12;;;;;;;4.88;1.15;;;;;;;;;;5052094;28;20032;-75
2022/09/27 11:34:47;;;;;;;5.05;0.90;;;;;;;;;;5054066;28;20094;-74
2022/09/27 11:37:22;;;;;;;4.72;0.80;;;;;;;;;;5057351;28;20109;-75
2022/09/27 11:39:56;;;;;;;3.92;0.82;;;;;;;;;;5056137;28;20096;-75
2022/09/27 11:42:25;;;;;;;4.50;0.93;;;;;;;;;;5055911;28;20487;-77
2022/09/27 11:44:51;;;;;;;6.28;1.30;;;;;;;;;;5056681;28;20021;-78
2022/09/27 11:47:36;;;;;;;8.77;2.33;;;;;;;;;;5055814;28;20024;-77
2022/09/27 11:50:21;;;;;;;7.00;2.05;;;;;;;;;;5053423;28;20032;-78
2022/09/27 11:52:57;;;;;;;3.97;0.88;;;;;;;;;;5056606;28;20033;-75
2022/09/27 11:55:42;;;;;;;4.95;1.42;;;;;;;;;;5055207;28;20034;-76
2022/09/27 11:58:17;;;;;;;6.50;1.95;;;;;;;;;;5055186;28;20020;-76
2022/09/27 12:01:02;;;;;;;4.82;1.75;;;;;;;;;;5053231;28;20083;-76
2022/09/27 12:03:41;;;;;;;4.82;1.38;;;;;;;;;;5058834;28;20395;-76
2022/09/27 12:06:12;;;;;;;5.45;2.00;;;;;;;;;;5052681;28;20137;-76
2022/09/27 12:08:50;;;;;;;5.25;1.73;;;;;;;;;;5057275;28;20028;-76
2022/09/27 12:11:20;;;;;;;5.80;1.70;;;;;;;;;;5055209;28;20148;-75
2022/09/27 12:13:49;;;;;;;4.97;1.70;;;;;;;;;;5055654;28;20047;-76
2022/09/27 12:16:16;;;;;;;8.30;2.72;;;;;;;;;;5055335;28;20075;-75
2022/09/27 12:18:43;;;;;;;5.32;2.20;;;;;;;;;;5053938;28;20047;-76
2022/09/27 12:21:09;;;;;;;5.82;1.98;;;;;;;;;;5055099;28;20037;-75
2022/09/27 12:23:44;;;;;;;8.75;2.45;;;;;;;;;;5060512;28;20505;-76
2022/09/27 12:26:15;;;;;;;2.88;1.00;;;;;;;;;;5058332;28;20029;-74
2022/09/27 12:29:12;;;;;;;7.00;2.45;;;;;;;;;;5054866;28;20505;-76
2022/09/27 12:31:46;;;;;;;6.90;2.30;;;;;;;;;;5052731;28;20051;-76
2022/09/27 12:34:16;;;;;;;2.90;1.63;;;;;;;;;;5057673;28;20036;-74
2022/09/27 12:36:43;;;;;;;;;;;;;;;;;;5059572;28;20052;-76
2022/09/27 12:39:17;;;;;;;1.50;0.77;;;;;;;;;;5055572;28;20306;-74
2022/09/27 12:41:45;;;;;;;1.25;0.70;;;;;;;;;;5052591;28;20133;-76
2022/09/27 12:44:12;;;;;;;1.83;0.65;;;;;;;;;;5054631;28;20112;-74
2022/09/27 12:46:40;;;;;;;2.45;0.70;;;;;;;;;;5054495;28;20020;-76
2022/09/27 12:49:30;;;;;;;2.22;0.60;;;;;;;;;;5058155;28;20028;-77
2022/09/27 12:52:01;;;;;;;0.65;0.32;;;;;;;;;;5055208;28;20036;-75
2022/09/27 12:54:38;;;;;;;2.33;0.43;;;;;;;;;;5053408;28;20024;-74
2022/09/27 12:57:24;;;;;;;2.22;0.65;;;;;;;;;;5051147;28;20040;-74
2022/09/27 13:00:01;;;;;;;1.75;0.70;;;;;;;;;;5053843;28;20063;-77
2022/09/27 13:02:46;;;;;;;1.98;0.70;;;;;;;;;;5055127;28;20474;-75
2022/09/27 13:05:27;;;;;;;3.65;0.68;;;;;;;;;;5056993;28;20060;-75
2022/09/27 13:08:07;;;;;;;2.45;0.90;;;;;;;;;;5055261;28;20494;-75
2022/09/27 13:11:06;;;;;;;1.65;0.68;;;;;;;;;;5053564;28;20020;-75
2022/09/27 13:13:32;;;;;;;2.00;0.80;;;;;;;;;;5066029;28;20105;-73
2022/09/27 13:15:59;;;;;;;2.05;0.60;;;;;;;;;;5054905;28;20028;-74
2022/09/27 13:18:33;;;;;;;4.28;1.10;;;;;;;;;;5058300;28;20021;-75
2022/09/27 13:21:00;;;;;;;5.95;1.63;;;;;;;;;;5056811;28;20036;-73
2022/09/27 13:23:27;;;;;;;3.90;1.17;;;;;;;;;;5053606;28;20064;-74
2022/09/27 13:25:58;;;;;;;4.00;1.13;;;;;;;;;;5057188;28;20487;-74
2022/09/27 13:28:30;;;;;;;4.28;1.08;;;;;;;;;;5052037;28;20106;-73
2022/09/27 13:31:08;;;;;;;4.00;1.35;;;;;;;;;;5054965;28;20024;-74
2022/09/27 13:33:45;;;;;;;4.30;0.90;;;;;;;;;;5055832;28;20078;-74
2022/09/27 13:36:23;;;;;;;5.38;1.08;;;;;;;;;;5054148;28;20032;-74
2022/09/27 13:39:14;;;;;;;4.65;1.10;;;;;;;;;;5054533;28;20433;-72
2022/09/27 13:41:47;;;;;;;4.13;1.58;;;;;;;;;;5055466;28;20120;-71
2022/09/27 13:44:13;;;;;;;5.60;1.20;;;;;;;;;;5051822;28;20028;-73
2022/09/27 13:46:50;;;;;;;7.70;1.20;;;;;;;;;;5053395;28;20033;-72
2022/09/27 13:49:30;;;;;;;4.70;1.52;;;;;;;;;;5050979;28;20506;-72
2022/09/27 13:52:00;;;;;;;4.72;1.10;;;;;;;;;;5053150;28;20021;-71
2022/09/27 13:54:40;;;;;;;2.42;0.90;;;;;;;;;;5051561;28;20075;-72
2022/09/27 13:57:26;;;;;;;3.17;1.45;;;;;;;;;;5053796;28;20039;-70
2022/09/27 13:59:55;;;;;;;4.32;1.17;;;;;;;;;;5053313;28;20452;-72
2022/09/27 14:02:31;;;;;;;3.72;1.00;;;;;;;;;;5054111;28;20033;-71
2022/09/27 14:04:59;;;;;;;3.20;0.80;;;;;;;;;;5054351;28;20037;-72
2022/09/27 14:07:30;;;;;;;2.35;0.70;;;;;;;;;;5053217;28;20033;-72
2022/09/27 14:10:00;;;;;;;3.63;0.98;;;;;;;;;;5052879;28;20170;-73
2022/09/27 14:12:34;;;;;;;5.63;0.75;;;;;;;;;;5054683;28;20036;-72
2022/09/27 14:15:02;;;;;;;4.85;0.70;;;;;;;;;;5052165;28;20033;-72
2022/09/27 14:17:30;;;;;;;3.30;0.73;;;;;;;;;;5051174;28;20097;-72
2022/09/27 14:19:56;;;;;;;6.35;1.55;;;;;;;;;;5051888;28;20047;-73
2022/09/27 14:22:23;;;;;;;4.57;1.10;;;;;;;;;;5051990;28;20133;-73
2022/09/27 14:24:49;;;;;;;3.22;1.48;;;;;;;;;;5052115;28;20071;-72
2022/09/27 14:27:20;;;;;;;5.78;1.17;;;;;;;;;;5049096;28;20032;-71
2022/09/27 14:29:48;;;;;;;2.08;0.95;;;;;;;;;;5057019;28;20055;-72
2022/09/27 14:32:16;;;;;;;3.38;1.30;;;;;;;;;;5055178;28;20028;-72
2022/09/27 14:34:42;;;;;;;3.28;1.00;;;;;;;;;;5058863;28;20672;-71
2022/09/27 14:37:23;;;;;;;3.58;1.00;;;;;;;;;;5061816;28;20433;-76
2022/09/27 14:40:04;;;;;;;6.65;1.90;;;;;;;;;;5061746;28;20024;-78
2022/09/27 14:42:35;;;;;;;3.03;0.73;;;;;;;;;;5059441;28;20025;-78
2022/09/27 14:45:01;;;;;;;;;;;;;;;;;;5066474;28;20103;-75
2022/09/27 14:47:28;;;;;;;3.10;1.00;;;;;;;;;;5057433;28;20419;-79
2022/09/27 14:49:56;;;;;;;4.10;0.95;;;;;;;;;;5064081;28;20027;-78
2022/09/27 14:52:27;;;;;;;5.57;1.48;;;;;;;;;;5074215;28;20039;-80
2022/09/27 14:55:01;;;;;;;1.73;0.60;;;;;;;;;;5072121;28;20078;-79
2022/09/27 14:57:34;;;;;;;5.10;1.30;;;;;;;;;;5055775;28;20029;-78
2022/09/27 15:00:11;;;;;;;2.35;1.13;;;;;;;;;;5054769;28;20032;-79
2022/09/27 15:02:40;;;;;;;4.53;1.45;;;;;;;;;;5054346;28;20403;-79
2022/09/27 15:05:13;;;;;;;5.55;0.82;;;;;;;;;;5052470;28;20537;-79
2022/09/27 15:07:39;;;;;;;4.65;0.93;;;;;;;;;;5054551;28;20543;-80